Terminal Aerodrome Forecast
Issued by NWS

Home | Current Version | Previous Version | Text Only | Print | Product List | Glossary On
Versions: 1 2 3 4 5 6 7 8 9 10 11 12
000
FTUS42 KMLB 210500
TAFLEE
TAF
KLEE 210535Z 2106/2206 07003KT P6SM BKN100 OVC250
     FM210800 VRB03KT 5SM BR BKN015 OVC030
     FM211400 14004KT P6SM SCT015 OVC030
     FM211700 17007KT P6SM SCT020 OVC040
     FM220200 12005KT P6SM VCSH SCT015 BKN025 OVC040=

USA.gov is the U.S. government's official web portal to all federal, state and local government web resources and services.